Time;durP1;ratioP1;P1;durP2;ratioP2;P2;SDS_P1;SDS_P2;PMS_P1;PMS_P2;Temp;Humidity;BMP_temperature;BMP_pressure;BME280_temperature;BME280_humidity;BME280_pressure;Samples;Min_cycle;Max_cycle;Signal;HPM_P1;HPM_P2
2022/12/02 00:00:51;;;;;;;1.35;1.27;;;2.50;99.90;;;;;;4397409;32;20105;-61
2022/12/02 00:03:20;;;;;;;7.93;1.45;;;2.50;99.90;;;;;;4374080;32;20534;-63
2022/12/02 00:05:48;;;;;;;1.60;1.50;;;2.60;99.90;;;;;;4362236;32;20116;-62
2022/12/02 00:08:24;;;;;;;3.75;1.10;;;2.60;99.90;;;;;;4378291;32;20446;-63
2022/12/02 00:10:52;;;;;;;3.12;2.25;;;2.60;99.90;;;;;;4396796;32;20102;-62
2022/12/02 00:13:21;;;;;;;3.17;2.03;;;2.60;99.90;;;;;;4396483;32;20500;-62
2022/12/02 00:15:54;;;;;;;0.73;0.73;;;2.60;99.90;;;;;;4383840;32;20069;-62
2022/12/02 00:18:19;;;;;;;3.15;2.10;;;2.50;99.90;;;;;;4385261;32;20540;-61
2022/12/02 00:20:45;;;;;;;14.57;4.10;;;2.60;99.90;;;;;;4396562;32;20152;-63
2022/12/02 00:23:11;;;;;;;1.12;1.12;;;2.70;99.90;;;;;;4397479;32;20521;-62
2022/12/02 00:25:37;;;;;;;2.37;1.65;;;2.60;99.90;;;;;;4395810;32;20093;-63
2022/12/02 00:28:03;;;;;;;1.00;1.00;;;2.70;99.90;;;;;;4400381;32;20081;-62
2022/12/02 00:30:28;;;;;;;0.77;0.77;;;2.60;99.90;;;;;;4396215;32;20085;-63
2022/12/02 00:32:53;;;;;;;11.18;1.80;;;2.70;99.90;;;;;;4394994;32;20140;-61
2022/12/02 00:35:20;;;;;;;1.83;1.17;;;2.70;99.90;;;;;;4378652;32;20545;-62
2022/12/02 00:37:45;;;;;;;1.27;1.17;;;2.60;99.90;;;;;;4388553;32;20501;-62
2022/12/02 00:40:11;;;;;;;5.28;1.92;;;2.60;99.90;;;;;;4396433;32;20099;-63
2022/12/02 00:42:37;;;;;;;0.90;0.90;;;2.70;99.90;;;;;;4388474;32;20552;-62
2022/12/02 00:46:35;;;;;;;5.78;2.08;;;2.70;99.90;;;;;;4401863;32;20074;-63
2022/12/02 00:47:48;;;;;;;2.05;1.50;;;2.60;99.90;;;;;;4389573;32;20079;-62
2022/12/02 00:50:14;;;;;;;2.67;1.83;;;2.70;99.90;;;;;;4404711;32;20436;-64
2022/12/02 00:52:39;;;;;;;5.80;0.93;;;2.60;99.90;;;;;;4403121;32;20093;-63
2022/12/02 00:55:06;;;;;;;2.42;1.60;;;2.70;99.90;;;;;;4400973;32;20113;-63
2022/12/02 00:57:31;;;;;;;7.32;2.58;;;2.60;99.90;;;;;;4385914;32;20092;-62
2022/12/02 00:59:57;;;;;;;4.60;2.30;;;2.60;99.90;;;;;;4397753;32;20580;-62
2022/12/02 01:02:22;;;;;;;1.87;1.50;;;2.60;99.90;;;;;;4397473;32;20434;-63
2022/12/02 01:04:48;;;;;;;2.40;1.95;;;2.60;99.90;;;;;;4366791;32;20769;-61
2022/12/02 01:07:13;;;;;;;1.42;1.33;;;2.60;99.90;;;;;;4384797;32;20070;-62
2022/12/02 01:09:39;;;;;;;1.73;1.37;;;2.60;99.90;;;;;;4400771;32;20082;-63
2022/12/02 01:12:05;;;;;;;1.35;1.25;;;2.60;99.90;;;;;;4400033;32;20109;-63
2022/12/02 01:14:30;;;;;;;1.08;1.08;;;2.50;99.90;;;;;;4399953;32;20061;-62
2022/12/02 01:16:56;;;;;;;6.10;1.95;;;2.50;99.90;;;;;;4397279;32;20113;-61
2022/12/02 01:19:21;;;;;;;5.20;2.67;;;2.50;99.90;;;;;;4400725;32;20082;-62
2022/12/02 01:21:46;;;;;;;6.10;1.67;;;2.60;99.90;;;;;;4398382;32;20608;-62
2022/12/02 01:24:12;;;;;;;0.75;0.75;;;2.60;99.90;;;;;;4400879;32;20530;-62
2022/12/02 01:26:38;;;;;;;1.48;1.12;;;2.60;99.90;;;;;;4399232;32;20078;-63
2022/12/02 01:29:03;;;;;;;4.57;1.85;;;2.60;99.90;;;;;;4398239;32;20078;-62
2022/12/02 01:31:28;;;;;;;8.20;2.80;;;2.60;99.90;;;;;;4399323;32;20439;-62
2022/12/02 01:33:54;;;;;;;1.85;1.60;;;2.50;99.90;;;;;;4386669;32;20383;-61
2022/12/02 01:36:19;;;;;;;1.90;1.77;;;2.60;99.90;;;;;;4381592;32;20110;-61
2022/12/02 01:38:45;;;;;;;0.85;0.82;;;2.50;99.90;;;;;;4398621;32;20089;-62
2022/12/02 01:41:11;;;;;;;5.57;1.75;;;2.50;99.90;;;;;;4402180;32;20078;-62
2022/12/02 01:43:36;;;;;;;1.60;1.33;;;2.50;99.90;;;;;;4402556;32;20566;-62
2022/12/02 01:46:02;;;;;;;3.42;2.53;;;2.50;99.90;;;;;;4398475;32;20161;-61
2022/12/02 01:48:28;;;;;;;3.08;2.03;;;2.50;99.90;;;;;;4398919;32;20149;-62
2022/12/02 01:50:54;;;;;;;1.77;1.62;;;2.50;99.90;;;;;;4384337;32;20556;-62
2022/12/02 01:53:20;;;;;;;1.25;1.15;;;2.60;99.90;;;;;;4397431;32;20077;-63
2022/12/02 01:55:46;;;;;;;0.82;0.82;;;2.60;99.90;;;;;;4398501;32;20174;-62
2022/12/02 01:58:13;;;;;;;3.45;2.15;;;2.60;99.90;;;;;;4398950;32;20090;-62
2022/12/02 02:00:39;;;;;;;1.55;1.45;;;2.60;99.90;;;;;;4384336;32;20101;-60
2022/12/02 02:03:04;;;;;;;4.35;2.15;;;2.60;99.90;;;;;;4392815;32;20082;-62
2022/12/02 02:05:31;;;;;;;1.45;1.35;;;2.60;99.90;;;;;;4378488;32;20573;-62
2022/12/02 02:08:03;;;;;;;1.45;1.30;;;2.60;99.90;;;;;;4376575;32;20083;-62
2022/12/02 02:10:29;;;;;;;5.22;2.22;;;2.70;99.90;;;;;;4388212;32;20086;-63
2022/12/02 02:12:55;;;;;;;1.62;1.52;;;2.60;99.90;;;;;;4397222;32;20618;-62
2022/12/02 02:15:21;;;;;;;4.72;2.40;;;2.60;99.90;;;;;;4384778;32;20066;-62
2022/12/02 02:17:47;;;;;;;10.70;2.28;;;2.50;99.90;;;;;;4381215;32;20189;-62
2022/12/02 02:20:17;;;;;;;1.98;1.80;;;2.50;99.90;;;;;;4385751;32;20124;-62
2022/12/02 02:23:10;;;;;;;0.93;0.93;;;2.40;99.90;;;;;;4399482;32;20061;-63
2022/12/02 02:25:42;;;;;;;1.58;1.45;;;2.50;99.90;;;;;;4395925;32;20126;-62
2022/12/02 02:28:08;;;;;;;2.25;1.85;;;2.50;99.90;;;;;;4384190;32;20194;-62
2022/12/02 02:30:34;;;;;;;1.05;1.05;;;2.40;99.90;;;;;;4385540;32;20077;-61
2022/12/02 02:33:04;;;;;;;2.55;1.77;;;2.50;99.90;;;;;;4380806;32;20475;-60
2022/12/02 02:35:30;;;;;;;1.45;1.35;;;2.50;99.90;;;;;;4352144;32;20476;-62
2022/12/02 02:37:56;;;;;;;1.90;1.73;;;2.50;99.90;;;;;;4390617;32;20276;-62
2022/12/02 02:40:23;;;;;;;2.58;1.87;;;2.50;99.90;;;;;;4397268;32;20065;-62
2022/12/02 02:42:51;;;;;;;3.08;2.45;;;2.50;99.90;;;;;;4384503;32;20647;-62
2022/12/02 02:45:19;;;;;;;1.10;1.05;;;2.50;99.90;;;;;;4383229;32;20055;-62
2022/12/02 02:47:45;;;;;;;2.90;1.67;;;2.40;99.90;;;;;;4382609;32;20103;-61
2022/12/02 02:50:11;;;;;;;0.80;0.80;;;2.40;99.90;;;;;;4383597;32;20144;-62
2022/12/02 02:52:36;;;;;;;5.18;1.52;;;2.40;99.90;;;;;;4398708;32;20089;-63
2022/12/02 02:55:02;;;;;;;2.85;2.08;;;2.40;99.90;;;;;;4396228;32;20121;-62
2022/12/02 02:57:28;;;;;;;0.62;0.62;;;2.40;99.90;;;;;;4380295;32;20481;-62
2022/12/02 02:59:55;;;;;;;5.03;2.25;;;2.40;99.90;;;;;;4396908;32;20125;-63
2022/12/02 03:02:21;;;;;;;2.03;1.73;;;2.30;99.90;;;;;;4397453;32;20105;-62
2022/12/02 03:04:47;;;;;;;1.15;1.10;;;2.40;99.90;;;;;;4379072;32;20129;-62
2022/12/02 03:07:13;;;;;;;1.55;1.27;;;2.40;99.90;;;;;;4387426;32;20062;-62
2022/12/02 03:09:39;;;;;;;4.43;2.47;;;2.40;99.90;;;;;;4394780;32;20073;-62
2022/12/02 03:12:05;;;;;;;2.47;1.58;;;2.40;99.90;;;;;;4384246;32;20110;-62
2022/12/02 03:14:31;;;;;;;1.87;1.35;;;2.40;99.90;;;;;;4399344;32;20069;-62
2022/12/02 03:16:59;;;;;;;1.15;1.00;;;2.40;99.90;;;;;;4398157;32;20184;-62
2022/12/02 03:19:25;;;;;;;1.33;1.25;;;2.40;99.90;;;;;;4396778;32;20092;-62
2022/12/02 03:21:51;;;;;;;1.20;1.20;;;2.40;99.90;;;;;;4395538;32;20156;-62
2022/12/02 03:24:17;;;;;;;1.00;1.00;;;2.40;99.90;;;;;;4397346;32;20127;-62
2022/12/02 03:26:42;;;;;;;10.07;3.15;;;2.30;99.90;;;;;;4398401;32;20090;-62
2022/12/02 03:29:10;;;;;;;2.05;1.65;;;2.30;99.90;;;;;;4382473;32;20493;-62
2022/12/02 03:31:36;;;;;;;2.28;1.73;;;2.30;99.90;;;;;;4382123;32;20112;-61
2022/12/02 03:34:01;;;;;;;1.45;1.35;;;2.30;99.90;;;;;;4383563;32;20077;-63
2022/12/02 03:36:27;;;;;;;1.02;1.00;;;2.20;99.90;;;;;;4379898;32;20525;-62
2022/12/02 03:38:53;;;;;;;1.40;1.02;;;2.20;99.90;;;;;;4396608;32;20176;-62
2022/12/02 03:41:19;;;;;;;1.98;1.55;;;2.20;99.90;;;;;;4387399;32;20069;-62
2022/12/02 03:43:45;;;;;;;8.40;1.52;;;2.20;99.90;;;;;;4397254;32;20419;-62
2022/12/02 03:46:11;;;;;;;1.67;1.58;;;2.20;99.90;;;;;;4401401;32;20115;-62
2022/12/02 03:48:38;;;;;;;4.25;2.12;;;2.20;99.90;;;;;;4395493;32;20057;-60
2022/12/02 03:51:04;;;;;;;1.55;1.45;;;2.20;99.90;;;;;;4385159;32;20130;-62
2022/12/02 03:53:30;;;;;;;2.50;1.80;;;2.20;99.90;;;;;;4399095;32;20493;-62
2022/12/02 03:55:56;;;;;;;2.90;2.15;;;2.20;99.90;;;;;;4383621;32;20089;-63
2022/12/02 03:58:32;;;;;;;4.90;2.25;;;2.20;99.90;;;;;;4398662;32;20070;-62
2022/12/02 04:00:58;;;;;;;0.70;0.70;;;2.20;99.90;;;;;;4384999;32;20097;-62
2022/12/02 04:03:23;;;;;;;1.73;1.58;;;2.20;99.90;;;;;;4392819;32;20592;-61
2022/12/02 04:05:49;;;;;;;3.65;2.25;;;2.10;99.90;;;;;;4380165;32;20098;-62
2022/12/02 04:08:14;;;;;;;39.17;3.10;;;2.10;99.90;;;;;;4396766;32;20378;-62
2022/12/02 04:10:40;;;;;;;9.75;2.33;;;2.10;99.90;;;;;;4399786;32;20839;-63
2022/12/02 04:13:05;;;;;;;4.87;1.00;;;2.10;99.90;;;;;;4401423;32;20174;-62
2022/12/02 04:15:31;;;;;;;1.73;1.62;;;2.10;99.90;;;;;;4401276;32;20152;-62
2022/12/02 04:17:56;;;;;;;1.27;1.25;;;2.10;99.90;;;;;;4402313;32;20090;-63
2022/12/02 04:20:21;;;;;;;1.27;1.23;;;2.00;99.90;;;;;;4405303;32;20094;-62
2022/12/02 04:22:47;;;;;;;0.98;0.98;;;2.10;99.90;;;;;;4388173;32;20077;-62
2022/12/02 04:25:12;;;;;;;2.90;1.83;;;2.00;99.90;;;;;;4402093;32;20149;-62
2022/12/02 04:27:38;;;;;;;1.55;1.45;;;2.00;99.90;;;;;;4404461;32;20588;-62
2022/12/02 04:30:04;;;;;;;1.00;1.00;;;2.00;99.90;;;;;;4404507;32;20082;-62
2022/12/02 04:32:29;;;;;;;3.95;1.75;;;2.10;99.90;;;;;;4389555;32;20054;-62
2022/12/02 04:34:55;;;;;;;2.92;1.62;;;2.10;99.90;;;;;;4383258;32;20102;-61
2022/12/02 04:37:20;;;;;;;1.08;1.08;;;2.20;99.90;;;;;;4394271;32;20062;-63
2022/12/02 04:39:46;;;;;;;1.62;1.52;;;2.20;99.90;;;;;;4403685;32;20064;-63
2022/12/02 04:42:11;;;;;;;2.12;1.52;;;2.20;99.90;;;;;;4401375;32;20495;-62
2022/12/02 04:44:37;;;;;;;3.47;0.90;;;2.20;99.90;;;;;;4403129;32;20094;-63
2022/12/02 04:47:02;;;;;;;1.00;1.00;;;2.20;99.90;;;;;;4401649;32;20148;-63
2022/12/02 04:49:28;;;;;;;9.40;2.25;;;2.30;99.90;;;;;;4398503;32;20077;-62
2022/12/02 04:51:53;;;;;;;2.80;1.58;;;2.30;99.90;;;;;;4405718;32;20070;-62
2022/12/02 04:54:18;;;;;;;1.75;1.65;;;2.30;99.90;;;;;;4403677;32;20124;-62
2022/12/02 04:56:44;;;;;;;2.17;1.50;;;2.30;99.90;;;;;;4403945;32;20432;-62
2022/12/02 04:59:09;;;;;;;1.40;1.33;;;2.30;99.90;;;;;;4399703;32;20098;-62
2022/12/02 05:01:35;;;;;;;1.62;1.52;;;2.20;99.90;;;;;;4403596;32;20112;-62
2022/12/02 05:04:00;;;;;;;1.15;1.05;;;2.30;99.90;;;;;;4388402;32;20094;-62
2022/12/02 05:06:26;;;;;;;4.20;1.45;;;2.20;99.90;;;;;;4385113;32;20561;-61
2022/12/02 05:08:52;;;;;;;0.55;0.55;;;2.20;99.90;;;;;;4401303;32;20062;-61
2022/12/02 05:11:17;;;;;;;0.68;0.68;;;2.20;99.90;;;;;;4402779;32;20229;-60
2022/12/02 05:13:43;;;;;;;3.33;2.22;;;2.20;99.90;;;;;;4404032;32;20069;-61
2022/12/02 05:16:08;;;;;;;1.37;1.23;;;2.20;99.90;;;;;;4399532;32;20505;-62
2022/12/02 05:18:34;;;;;;;0.77;0.77;;;2.20;99.90;;;;;;4387251;32;20165;-62
2022/12/02 05:20:59;;;;;;;1.23;1.15;;;2.20;99.90;;;;;;4393738;32;20102;-61
2022/12/02 05:23:25;;;;;;;0.80;0.80;;;2.20;99.90;;;;;;4359253;32;20550;-62
2022/12/02 05:25:50;;;;;;;1.02;1.00;;;2.10;99.90;;;;;;4365097;32;20174;-62
2022/12/02 05:28:16;;;;;;;0.70;0.70;;;2.20;99.90;;;;;;4355465;32;20179;-62
2022/12/02 05:30:41;;;;;;;3.17;1.42;;;2.20;99.90;;;;;;4361323;32;20070;-61
2022/12/02 05:33:07;;;;;;;0.70;0.70;;;2.20;99.90;;;;;;4353952;32;20588;-61
2022/12/02 05:35:34;;;;;;;1.95;1.00;;;2.20;99.90;;;;;;4342809;32;20069;-62
2022/12/02 05:37:59;;;;;;;1.35;1.25;;;2.20;99.90;;;;;;4378062;32;20682;-62
2022/12/02 05:40:25;;;;;;;0.77;0.77;;;2.20;99.90;;;;;;4399320;32;20089;-62
2022/12/02 05:42:50;;;;;;;1.90;1.23;;;2.20;99.90;;;;;;4399727;32;20687;-62
2022/12/02 05:45:21;;;;;;;1.33;1.23;;;2.20;99.90;;;;;;4397750;32;20069;-61
2022/12/02 05:47:51;;;;;;;5.20;1.40;;;2.20;99.90;;;;;;4383827;32;20062;-62
2022/12/02 05:50:17;;;;;;;1.40;1.30;;;2.20;99.90;;;;;;4385476;32;20113;-62
2022/12/02 05:52:43;;;;;;;1.00;1.00;;;2.20;99.90;;;;;;4363084;32;20089;-62
2022/12/02 05:55:13;;;;;;;1.48;0.88;;;2.20;99.90;;;;;;4358461;32;20098;-62
2022/12/02 05:57:39;;;;;;;7.60;1.20;;;2.20;99.90;;;;;;4367569;32;20082;-62
2022/12/02 06:00:14;;;;;;;0.82;0.82;;;2.30;99.90;;;;;;4397359;32;20113;-62
2022/12/02 06:02:46;;;;;;;2.10;1.50;;;2.30;99.90;;;;;;4375534;32;20807;-61
2022/12/02 06:05:15;;;;;;;0.80;0.77;;;2.30;99.90;;;;;;4328519;32;20110;-62
2022/12/02 06:07:40;;;;;;;0.90;0.90;;;2.30;99.90;;;;;;4353344;32;20228;-62
2022/12/02 06:10:28;;;;;;;0.95;0.90;;;2.20;99.90;;;;;;4353014;32;20070;-62
2022/12/02 06:12:58;;;;;;;0.50;0.50;;;2.30;99.90;;;;;;4339151;32;20761;-62
2022/12/02 06:15:24;;;;;;;2.17;1.58;;;2.20;99.90;;;;;;4347314;32;20494;-62
2022/12/02 06:17:51;;;;;;;1.33;1.23;;;2.30;99.90;;;;;;4317752;32;20329;-62
2022/12/02 06:20:28;;;;;;;1.20;1.15;;;2.30;99.90;;;;;;4300679;32;20560;-62
2022/12/02 06:22:54;;;;;;;0.62;0.62;;;2.40;99.90;;;;;;4307505;32;20831;-61
2022/12/02 06:25:24;;;;;;;0.98;0.98;;;2.40;99.90;;;;;;4281969;32;20195;-61
2022/12/02 06:27:52;;;;;;;0.68;0.68;;;2.40;99.90;;;;;;4314006;32;20295;-61
2022/12/02 06:30:17;;;;;;;0.68;0.68;;;2.50;99.90;;;;;;4273608;32;20462;-62
2022/12/02 06:32:53;;;;;;;1.58;1.48;;;2.40;99.90;;;;;;4284579;32;20788;-62
2022/12/02 06:35:25;;;;;;;0.85;0.70;;;2.40;99.90;;;;;;4303906;32;20434;-61
2022/12/02 06:37:54;;;;;;;1.05;1.00;;;2.40;99.90;;;;;;4285328;32;20285;-62
2022/12/02 06:40:22;;;;;;;0.60;0.60;;;2.40;99.90;;;;;;4320900;32;20237;-61
2022/12/02 06:42:47;;;;;;;0.60;0.60;;;2.40;99.90;;;;;;4315595;32;20374;-62
2022/12/02 06:45:20;;;;;;;1.25;1.15;;;2.50;99.90;;;;;;4337556;32;20114;-62
2022/12/02 06:47:49;;;;;;;0.55;0.55;;;2.50;99.90;;;;;;4344810;32;20323;-62
2022/12/02 06:50:23;;;;;;;2.15;1.87;;;2.40;99.90;;;;;;4336365;32;20065;-63
2022/12/02 06:52:49;;;;;;;4.57;1.27;;;2.30;99.90;;;;;;4335210;32;20258;-63
2022/12/02 06:55:35;;;;;;;0.60;0.60;;;2.40;99.90;;;;;;4354758;32;20707;-62
2022/12/02 06:58:31;;;;;;;0.73;0.73;;;2.40;99.90;;;;;;4338465;32;20653;-61
2022/12/02 07:01:27;;;;;;;5.20;1.40;;;2.40;99.90;;;;;;4320025;32;20126;-63
2022/12/02 07:04:25;;;;;;;0.60;0.60;;;2.50;99.90;;;;;;4302184;32;20609;-63
2022/12/02 07:06:53;;;;;;;1.02;0.90;;;2.50;99.90;;;;;;4328787;32;20657;-62
2022/12/02 07:09:37;;;;;;;2.80;1.27;;;2.40;99.90;;;;;;4330342;32;20619;-63
2022/12/02 07:12:11;;;;;;;1.50;0.75;;;2.40;99.90;;;;;;4351130;32;21064;-63
2022/12/02 07:14:44;;;;;;;1.85;1.02;;;2.40;99.90;;;;;;4334589;32;20676;-62
2022/12/02 07:17:18;;;;;;;1.52;1.42;;;2.50;99.90;;;;;;4330910;32;20114;-63
2022/12/02 07:19:45;;;;;;;0.60;0.60;;;2.50;99.90;;;;;;4328825;32;20185;-62
2022/12/02 07:22:17;;;;;;;0.75;0.75;;;2.50;99.90;;;;;;4345485;32;20245;-61
2022/12/02 07:24:55;;;;;;;0.50;0.50;;;2.40;99.90;;;;;;4339238;32;20399;-62
2022/12/02 07:27:27;;;;;;;0.52;0.52;;;2.40;99.90;;;;;;4344820;32;20668;-63
2022/12/02 07:29:54;;;;;;;0.50;0.50;;;2.40;99.90;;;;;;4319793;32;21036;-61
2022/12/02 07:32:19;;;;;;;1.10;0.95;;;2.50;99.90;;;;;;4335772;32;82199;-63
2022/12/02 07:34:45;;;;;;;0.85;0.85;;;2.50;99.90;;;;;;4326786;32;20177;-63
2022/12/02 07:37:11;;;;;;;0.57;0.57;;;2.50;99.90;;;;;;4332208;32;20804;-63
2022/12/02 07:39:36;;;;;;;1.00;1.00;;;2.50;99.90;;;;;;4341334;32;20359;-63
2022/12/02 07:42:02;;;;;;;0.98;0.98;;;2.50;99.90;;;;;;4346671;32;20150;-63
2022/12/02 07:44:27;;;;;;;0.62;0.62;;;2.50;99.90;;;;;;4359341;32;20417;-63
2022/12/02 07:46:53;;;;;;;3.17;1.33;;;2.50;99.90;;;;;;4364087;32;20216;-63
2022/12/02 07:49:18;;;;;;;2.45;1.77;;;2.50;99.90;;;;;;4340070;32;20111;-62
2022/12/02 07:51:44;;;;;;;0.88;0.88;;;2.50;99.90;;;;;;4345383;32;20090;-63
2022/12/02 07:54:09;;;;;;;1.58;1.48;;;2.50;99.90;;;;;;4341629;32;20183;-63
2022/12/02 07:56:35;;;;;;;1.42;1.10;;;2.60;99.90;;;;;;4356161;32;20106;-62
2022/12/02 07:59:01;;;;;;;0.80;0.80;;;2.60;99.90;;;;;;4351820;32;20535;-65
2022/12/02 08:01:27;;;;;;;3.67;1.85;;;2.60;99.90;;;;;;4334188;32;20781;-64
2022/12/02 08:03:52;;;;;;;0.88;0.88;;;2.60;99.90;;;;;;4322399;32;20250;-64
2022/12/02 08:06:18;;;;;;;1.05;1.05;;;2.50;99.90;;;;;;4333563;32;20067;-63
2022/12/02 08:08:43;;;;;;;0.77;0.77;;;2.60;99.90;;;;;;4357455;32;20469;-64
2022/12/02 08:11:09;;;;;;;0.70;0.70;;;2.50;99.90;;;;;;4355273;32;20113;-64
2022/12/02 08:13:34;;;;;;;2.42;1.75;;;2.50;99.90;;;;;;4354241;32;20317;-64
2022/12/02 08:16:00;;;;;;;2.58;1.75;;;2.40;99.90;;;;;;4363843;32;20762;-64
2022/12/02 08:18:25;;;;;;;3.67;1.12;;;2.50;99.90;;;;;;4351023;32;20990;-64
2022/12/02 08:20:51;;;;;;;0.95;0.93;;;2.50;99.90;;;;;;4345926;32;20089;-64
2022/12/02 08:23:16;;;;;;;1.15;1.08;;;2.50;99.90;;;;;;4343316;32;20203;-63
2022/12/02 08:25:42;;;;;;;1.30;1.20;;;2.50;99.90;;;;;;4351925;32;20425;-64
2022/12/02 08:28:07;;;;;;;2.08;1.65;;;2.50;99.90;;;;;;4339312;32;20161;-65
2022/12/02 08:30:33;;;;;;;11.45;1.98;;;2.50;99.90;;;;;;4332634;32;20363;-64
2022/12/02 08:32:58;;;;;;;0.85;0.85;;;2.50;99.90;;;;;;4306041;32;20275;-66
2022/12/02 08:35:24;;;;;;;0.55;0.55;;;2.50;99.90;;;;;;4305044;32;20202;-64
2022/12/02 08:37:49;;;;;;;1.23;1.12;;;2.50;99.90;;;;;;4339211;32;20211;-63
2022/12/02 08:40:16;;;;;;;0.60;0.60;;;2.40;99.90;;;;;;4333969;32;20368;-63
2022/12/02 08:42:41;;;;;;;2.28;1.62;;;2.50;99.90;;;;;;4337717;32;20428;-63
2022/12/02 08:45:08;;;;;;;0.95;0.95;;;2.50;99.90;;;;;;4348157;32;20944;-64
2022/12/02 08:47:33;;;;;;;0.70;0.70;;;2.50;99.90;;;;;;4328567;32;20098;-64
2022/12/02 08:49:59;;;;;;;1.12;0.88;;;2.50;99.90;;;;;;4305123;32;20191;-64
2022/12/02 08:52:24;;;;;;;1.02;1.02;;;2.50;99.90;;;;;;4325151;32;20421;-63
2022/12/02 08:54:50;;;;;;;31.35;2.55;;;2.60;99.90;;;;;;4337452;32;20478;-62
2022/12/02 08:57:15;;;;;;;0.50;0.50;;;2.50;99.90;;;;;;4329534;32;20113;-62
2022/12/02 08:59:41;;;;;;;0.82;0.82;;;2.50;99.90;;;;;;4310728;32;20453;-62
2022/12/02 09:02:06;;;;;;;1.05;0.98;;;2.50;99.90;;;;;;4323127;32;20097;-63
2022/12/02 09:04:32;;;;;;;2.33;1.90;;;2.50;99.90;;;;;;4313814;32;20916;-62
2022/12/02 09:06:57;;;;;;;1.02;1.00;;;2.50;99.90;;;;;;4330459;32;20090;-63
2022/12/02 09:09:23;;;;;;;0.65;0.65;;;2.60;99.90;;;;;;4330640;32;21052;-62
2022/12/02 09:11:48;;;;;;;3.42;1.45;;;2.50;99.90;;;;;;4324890;32;20413;-62
2022/12/02 09:14:14;;;;;;;2.08;1.25;;;2.50;99.90;;;;;;4338098;32;20086;-63
2022/12/02 09:16:39;;;;;;;3.97;1.35;;;2.50;99.90;;;;;;4347594;32;20831;-62
2022/12/02 09:19:05;;;;;;;2.15;1.40;;;2.50;99.90;;;;;;4337594;32;21014;-62
2022/12/02 09:21:30;;;;;;;3.40;2.42;;;2.50;99.90;;;;;;4322437;32;20988;-62
2022/12/02 09:23:56;;;;;;;1.37;1.27;;;2.50;99.90;;;;;;4328835;32;20110;-61
2022/12/02 09:26:21;;;;;;;1.92;1.37;;;2.50;99.90;;;;;;4340346;32;20086;-62
2022/12/02 09:28:47;;;;;;;1.23;1.17;;;2.60;99.90;;;;;;4335916;32;21147;-62
2022/12/02 09:31:12;;;;;;;0.52;0.52;;;2.60;99.90;;;;;;4321025;32;20378;-61
2022/12/02 09:33:38;;;;;;;4.07;2.78;;;2.60;99.90;;;;;;4313673;32;20356;-62
2022/12/02 09:36:03;;;;;;;1.55;1.33;;;2.70;99.90;;;;;;4315427;32;20574;-62
2022/12/02 09:38:30;;;;;;;0.80;0.80;;;2.70;99.90;;;;;;4342588;32;20090;-63
2022/12/02 09:40:59;;;;;;;4.87;2.33;;;2.70;99.90;;;;;;4327374;32;20085;-62
2022/12/02 09:43:25;;;;;;;1.05;1.02;;;2.80;99.90;;;;;;4330403;32;20748;-61
2022/12/02 09:45:50;;;;;;;1.65;1.30;;;2.80;99.90;;;;;;4350431;32;20126;-62
2022/12/02 09:48:16;;;;;;;2.25;2.05;;;2.80;99.90;;;;;;4341174;32;20081;-62
2022/12/02 09:50:41;;;;;;;10.77;2.00;;;2.80;99.90;;;;;;4331893;32;21109;-63
2022/12/02 09:53:07;;;;;;;1.35;1.25;;;2.80;99.90;;;;;;4316186;32;20113;-62
2022/12/02 09:55:35;;;;;;;1.83;1.30;;;2.80;99.90;;;;;;4337840;32;20401;-62
2022/12/02 09:58:13;;;;;;;5.62;1.67;;;2.80;99.90;;;;;;4319161;32;20509;-63
2022/12/02 10:00:39;;;;;;;11.95;2.87;;;2.80;99.90;;;;;;4325176;32;20347;-63
2022/12/02 10:03:06;;;;;;;1.65;1.52;;;2.80;99.90;;;;;;4311188;32;20908;-63
2022/12/02 10:05:32;;;;;;;0.85;0.85;;;2.80;99.90;;;;;;4306914;32;20794;-63
2022/12/02 10:07:59;;;;;;;1.62;1.45;;;2.90;99.90;;;;;;4336240;32;20391;-63
2022/12/02 10:10:41;;;;;;;2.78;2.22;;;2.90;99.90;;;;;;4332300;32;20474;-63
2022/12/02 10:13:12;;;;;;;3.05;1.33;;;2.90;99.90;;;;;;4323071;32;20504;-63
2022/12/02 10:15:38;;;;;;;2.17;1.23;;;2.90;99.90;;;;;;4331524;32;20118;-63
2022/12/02 10:18:12;;;;;;;2.47;1.50;;;2.90;99.90;;;;;;4349949;32;20321;-61
2022/12/02 10:20:37;;;;;;;3.40;1.02;;;2.90;99.90;;;;;;4315368;32;20101;-63
2022/12/02 10:23:23;;;;;;;2.47;1.33;;;2.90;99.90;;;;;;4315519;32;22011;-62
2022/12/02 10:25:57;;;;;;;3.80;2.03;;;2.80;99.90;;;;;;4305622;32;20447;-62
2022/12/02 10:28:26;;;;;;;2.80;1.77;;;2.80;99.90;;;;;;4320726;32;20193;-62
2022/12/02 10:30:55;;;;;;;0.85;0.85;;;2.90;99.90;;;;;;4326691;32;20097;-62
2022/12/02 10:33:24;;;;;;;1.60;1.50;;;2.80;99.90;;;;;;4295835;32;20146;-61
2022/12/02 10:35:53;;;;;;;3.67;1.90;;;2.90;99.90;;;;;;4311383;32;20433;-62
2022/12/02 10:38:42;;;;;;;7.78;1.73;;;2.90;99.90;;;;;;4338047;32;20090;-62
2022/12/02 10:41:18;;;;;;;1.08;1.05;;;2.80;99.90;;;;;;4336459;32;20988;-62
2022/12/02 10:44:02;;;;;;;1.55;1.45;;;2.80;99.90;;;;;;4329416;32;20231;-62
2022/12/02 10:46:27;;;;;;;1.90;1.48;;;2.80;99.90;;;;;;4334463;32;21117;-62
2022/12/02 10:48:53;;;;;;;1.02;1.02;;;2.80;99.90;;;;;;4328004;32;20312;-63
2022/12/02 10:51:20;;;;;;;3.75;1.98;;;2.80;99.90;;;;;;4343685;32;20522;-63
2022/12/02 10:53:49;;;;;;;1.87;1.35;;;2.80;99.90;;;;;;4333514;32;20890;-63
2022/12/02 10:56:18;;;;;;;11.25;1.90;;;2.70;99.90;;;;;;4332415;32;20276;-63
2022/12/02 10:58:45;;;;;;;1.67;1.52;;;2.70;99.90;;;;;;4325501;32;20102;-63
2022/12/02 11:01:12;;;;;;;8.65;3.00;;;2.70;99.90;;;;;;4338453;32;20130;-62
2022/12/02 11:03:38;;;;;;;1.45;1.30;;;2.60;99.90;;;;;;4332025;32;20106;-64
2022/12/02 11:06:05;;;;;;;1.40;1.30;;;2.70;99.90;;;;;;4332959;32;20110;-63
2022/12/02 11:08:31;;;;;;;4.65;3.15;;;2.70;99.90;;;;;;4343521;32;20166;-64
2022/12/02 11:11:36;;;;;;;2.67;2.25;;;2.70;99.90;;;;;;4348255;32;20821;-64
2022/12/02 11:14:04;;;;;;;2.17;1.55;;;2.70;99.90;;;;;;4328947;32;20122;-64
2022/12/02 11:16:33;;;;;;;1.55;1.45;;;2.70;99.90;;;;;;4344023;32;20218;-64
2022/12/02 11:19:36;;;;;;;1.33;1.20;;;2.70;99.90;;;;;;4339029;32;21097;-64
2022/12/02 11:22:02;;;;;;;0.65;0.65;;;2.80;99.90;;;;;;4330479;32;20149;-63
2022/12/02 11:24:30;;;;;;;0.95;0.95;;;2.80;99.90;;;;;;4350272;32;20976;-63
2022/12/02 11:27:02;;;;;;;1.27;1.17;;;2.80;99.90;;;;;;4359522;32;20616;-64
2022/12/02 11:29:48;;;;;;;2.30;1.75;;;2.70;99.90;;;;;;4351774;32;20101;-63
2022/12/02 11:32:25;;;;;;;3.08;2.00;;;2.60;99.90;;;;;;4315653;32;20264;-63
2022/12/02 11:34:54;;;;;;;3.00;1.92;;;2.60;99.90;;;;;;4330872;32;20308;-63
2022/12/02 11:37:29;;;;;;;1.45;1.35;;;2.60;99.90;;;;;;4338182;32;20329;-63
2022/12/02 11:40:00;;;;;;;1.58;1.45;;;2.60;99.90;;;;;;4355151;32;20686;-63
2022/12/02 11:42:31;;;;;;;1.95;1.77;;;2.60;99.90;;;;;;4358180;32;20073;-63
2022/12/02 11:45:18;;;;;;;2.10;1.90;;;2.70;99.90;;;;;;4351592;32;20114;-63
2022/12/02 11:47:54;;;;;;;1.52;1.42;;;2.80;99.90;;;;;;4344205;32;20083;-63
2022/12/02 11:50:27;;;;;;;0.60;0.60;;;2.80;99.90;;;;;;4343772;32;20761;-64
2022/12/02 11:52:56;;;;;;;2.90;1.75;;;2.80;99.90;;;;;;4316996;32;20094;-63
2022/12/02 11:55:29;;;;;;;1.15;1.15;;;2.80;99.90;;;;;;4323756;32;20200;-63
2022/12/02 11:57:57;;;;;;;1.62;1.52;;;2.80;99.90;;;;;;4332471;32;20090;-64
2022/12/02 12:00:28;;;;;;;1.65;1.23;;;2.80;99.90;;;;;;4337130;32;20142;-64
2022/12/02 12:03:17;;;;;;;2.87;1.67;;;2.80;99.90;;;;;;4334496;32;20942;-63
2022/12/02 12:06:08;;;;;;;2.47;2.15;;;2.80;99.90;;;;;;4303077;32;20886;-64
2022/12/02 12:08:35;;;;;;;1.87;1.35;;;2.80;99.90;;;;;;4334246;32;20115;-63
2022/12/02 12:11:36;;;;;;;2.47;2.25;;;2.70;99.90;;;;;;4347900;32;20166;-64
2022/12/02 12:14:19;;;;;;;3.05;1.17;;;2.70;99.90;;;;;;4344249;32;20427;-64
2022/12/02 12:16:47;;;;;;;2.53;1.58;;;2.60;99.90;;;;;;4336304;32;20123;-63
2022/12/02 12:19:15;;;;;;;4.53;1.55;;;2.60;99.90;;;;;;4331424;32;20161;-63
2022/12/02 12:21:45;;;;;;;1.42;1.35;;;2.60;99.90;;;;;;4343248;32;20139;-64
2022/12/02 12:24:22;;;;;;;3.70;2.72;;;2.60;99.90;;;;;;4331206;32;20648;-63
2022/12/02 12:26:50;;;;;;;0.80;0.80;;;2.60;99.90;;;;;;4355178;32;20360;-64
2022/12/02 12:29:17;;;;;;;2.83;1.90;;;2.60;99.90;;;;;;4352931;32;20995;-64
2022/12/02 12:31:43;;;;;;;1.45;1.35;;;2.50;99.90;;;;;;4338232;32;20933;-63
2022/12/02 12:34:10;;;;;;;1.40;1.30;;;2.50;99.90;;;;;;4309758;32;20294;-64
2022/12/02 12:36:36;;;;;;;3.25;1.92;;;2.50;99.90;;;;;;4346459;32;20521;-63
2022/12/02 12:39:02;;;;;;;1.58;1.48;;;2.50;99.90;;;;;;4349489;32;21035;-64
2022/12/02 12:41:28;;;;;;;1.45;1.27;;;2.50;99.90;;;;;;4336138;32;21333;-64
2022/12/02 12:43:53;;;;;;;1.20;1.17;;;2.50;99.90;;;;;;4325287;32;20581;-64
2022/12/02 12:46:19;;;;;;;1.33;1.23;;;2.60;99.90;;;;;;4330309;32;20196;-64
2022/12/02 12:48:44;;;;;;;2.95;1.75;;;2.50;99.90;;;;;;4311972;32;20974;-63
2022/12/02 12:51:10;;;;;;;3.05;2.05;;;2.40;99.90;;;;;;4336569;32;20161;-64
2022/12/02 12:53:35;;;;;;;1.60;1.50;;;2.50;99.90;;;;;;4338340;32;20098;-64
2022/12/02 12:56:01;;;;;;;2.12;1.45;;;2.40;99.90;;;;;;4352802;32;20962;-64
2022/12/02 12:58:27;;;;;;;2.35;1.73;;;2.40;99.90;;;;;;4341924;32;21547;-63
2022/12/02 13:00:53;;;;;;;2.95;2.33;;;2.50;99.90;;;;;;4341468;32;20212;-64
2022/12/02 13:03:18;;;;;;;1.35;1.25;;;2.50;99.90;;;;;;4337388;32;20111;-63